Time;durP1;ratioP1;P1;durP2;ratioP2;P2;SDS_P1;SDS_P2;PMS_P1;PMS_P2;Temp;Humidity;BMP_temperature;BMP_pressure;BME280_temperature;BME280_humidity;BME280_pressure;Samples;Min_cycle;Max_cycle;Signal;HPM_P1;HPM_P2
2022/03/06 00:01:37;;;;;;;23.65;14.13;;;;;;;0.99;61.17;102153.41;5112524;28;20028;-88
2022/03/06 00:04:03;;;;;;;23.20;13.32;;;;;;;0.97;60.26;102158.88;5095441;28;20077;-88
2022/03/06 00:06:31;;;;;;;24.00;14.20;;;;;;;0.93;61.54;102153.91;5098632;28;20032;-88
2022/03/06 00:08:57;;;;;;;21.38;12.73;;;;;;;0.90;59.95;102149.69;5116578;28;20027;-88
2022/03/06 00:11:22;;;;;;;22.13;13.07;;;;;;;0.87;61.63;102147.22;5117235;28;20551;-88
2022/03/06 00:13:48;;;;;;;21.80;13.18;;;;;;;0.84;61.65;102156.34;5116228;28;20035;-88
2022/03/06 00:16:17;;;;;;;23.25;12.90;;;;;;;0.81;61.28;102158.38;5099014;28;20036;-87
2022/03/06 00:18:42;;;;;;;22.67;13.70;;;;;;;0.77;62.32;102148.91;5116032;28;20088;-88
2022/03/06 00:21:09;;;;;;;20.20;12.13;;;;;;;0.76;62.58;102160.56;5099805;28;20043;-88
2022/03/06 00:23:34;;;;;;;22.23;13.07;;;;;;;0.73;61.80;102156.31;5099061;28;20151;-88
2022/03/06 00:26:00;;;;;;;21.40;13.15;;;;;;;0.72;61.79;102159.94;5115905;28;20459;-88
2022/03/06 00:28:26;;;;;;;22.67;13.38;;;;;;;0.69;62.17;102160.19;5116103;28;20028;-87
2022/03/06 00:30:53;;;;;;;22.10;13.63;;;;;;;0.65;62.08;102156.91;5116129;28;20130;-88
2022/03/06 00:33:19;;;;;;;21.15;12.82;;;;;;;0.63;62.27;102161.50;5099202;28;20047;-88
2022/03/06 00:35:44;;;;;;;21.40;12.40;;;;;;;0.61;62.92;102162.63;5115030;28;20396;-87
2022/03/06 00:38:10;;;;;;;20.83;12.75;;;;;;;0.59;61.74;102168.06;5115485;28;20494;-88
2022/03/06 00:40:36;;;;;;;23.90;13.98;;;;;;;0.58;61.54;102166.38;5115928;28;20032;-88
2022/03/06 00:43:02;;;;;;;22.92;13.32;;;;;;;0.55;62.30;102176.41;5115899;28;20039;-88
2022/03/06 00:45:28;;;;;;;23.02;14.07;;;;;;;0.53;62.07;102179.19;5115798;28;20038;-87
2022/03/06 00:47:53;;;;;;;22.05;14.48;;;;;;;0.51;62.23;102187.34;5081972;28;20391;-87
2022/03/06 00:50:22;;;;;;;24.67;14.77;;;;;;;0.52;61.13;102194.38;5115877;28;20039;-88
2022/03/06 00:52:47;;;;;;;24.10;14.07;;;;;;;0.52;60.84;102194.38;5098711;28;20035;-88
2022/03/06 00:55:13;;;;;;;24.10;14.35;;;;;;;0.49;61.78;102189.28;5081775;28;20027;-88
2022/03/06 00:57:38;;;;;;;21.33;12.90;;;;;;;0.48;61.89;102192.91;5098226;28;20447;-88
2022/03/06 01:00:06;;;;;;;24.48;14.98;;;;;;;0.47;62.17;102191.22;5115505;28;20049;-88
2022/03/06 01:02:31;;;;;;;25.40;14.52;;;;;;;0.46;61.61;102192.19;5115376;28;20024;-88
2022/03/06 01:04:57;;;;;;;24.25;15.25;;;;;;;0.47;62.48;102198.38;5116400;28;20081;-90
2022/03/06 01:07:23;;;;;;;25.08;14.43;;;;;;;0.42;62.83;102187.19;5098171;28;20032;-88
2022/03/06 01:09:48;;;;;;;24.40;15.23;;;;;;;0.41;62.48;102197.00;5115127;28;20023;-87
2022/03/06 01:12:17;;;;;;;23.88;13.93;;;;;;;0.40;62.63;102198.00;5114940;28;20118;-88
2022/03/06 01:14:43;;;;;;;23.80;15.02;;;;;;;0.38;63.21;102193.72;5115167;28;20031;-88
2022/03/06 01:17:11;;;;;;;22.73;13.90;;;;;;;0.35;60.46;102197.47;5114774;28;20396;-88
2022/03/06 01:19:37;;;;;;;23.17;13.75;;;;;;;0.31;62.04;102196.88;5115457;28;20028;-88
2022/03/06 01:22:03;;;;;;;21.15;12.73;;;;;;;0.28;62.76;102202.44;5115902;28;20392;-88
2022/03/06 01:24:28;;;;;;;22.23;13.77;;;;;;;0.28;62.53;102196.22;5114726;28;20038;-88
2022/03/06 01:26:54;;;;;;;24.33;14.55;;;;;;;0.24;63.08;102203.63;5097684;28;20039;-88
2022/03/06 01:29:22;;;;;;;25.15;15.38;;;;;;;0.22;61.16;102205.53;5116494;28;20429;-87
2022/03/06 01:31:48;;;;;;;24.65;14.88;;;;;;;0.21;62.89;102202.97;5098275;28;20032;-88
2022/03/06 01:34:13;;;;;;;25.20;15.27;;;;;;;0.16;63.06;102206.00;5097735;28;20035;-88
2022/03/06 01:36:39;;;;;;;23.02;13.82;;;;;;;0.12;63.64;102217.91;5096965;28;20032;-87
2022/03/06 01:39:07;;;;;;;25.25;14.57;;;;;;;0.09;62.34;102215.41;5114571;28;20024;-88
2022/03/06 01:41:34;;;;;;;26.58;16.00;;;;;;;0.08;62.54;102216.41;5114581;28;20031;-88
2022/03/06 01:44:03;;;;;;;25.75;15.07;;;;;;;0.03;63.33;102218.56;5115706;28;20032;-88
2022/03/06 01:46:28;;;;;;;23.67;14.43;;;;;;;0.03;61.56;102222.09;5097816;28;20038;-88
2022/03/06 01:48:54;;;;;;;27.38;16.15;;;;;;;0.01;63.65;102226.66;5113910;28;20023;-88
2022/03/06 01:51:19;;;;;;;23.70;13.88;;;;;;;-0.07;64.23;102221.91;5114643;28;20471;-88
2022/03/06 01:53:45;;;;;;;23.50;14.90;;;;;;;-0.07;63.57;102224.56;5114259;28;20028;-88
2022/03/06 01:56:14;;;;;;;24.40;14.93;;;;;;;-0.08;63.54;102225.53;5114460;28;20039;-88
2022/03/06 01:58:41;;;;;;;24.25;14.02;;;;;;;-0.13;63.30;102225.03;5114485;28;20555;-88
2022/03/06 02:01:07;;;;;;;25.75;15.68;;;;;;;-0.17;64.56;102215.53;5115564;28;20036;-88
2022/03/06 02:03:35;;;;;;;26.77;15.30;;;;;;;-0.16;63.30;102225.25;5097384;28;20073;-88
2022/03/06 02:06:01;;;;;;;24.20;14.70;;;;;;;-0.21;63.95;102222.03;5115072;28;20053;-88
2022/03/06 02:08:29;;;;;;;23.38;14.48;;;;;;;-0.26;64.23;102219.72;5114019;28;20474;-88
2022/03/06 02:10:54;;;;;;;23.90;14.18;;;;;;;-0.30;65.02;102226.22;5080403;28;20059;-88
2022/03/06 02:13:20;;;;;;;26.92;16.15;;;;;;;-0.28;65.11;102235.00;5115247;28;20051;-88
2022/03/06 02:15:46;;;;;;;23.98;14.25;;;;;;;-0.32;65.74;102222.00;5113754;28;20092;-82
2022/03/06 02:18:11;;;;;;;23.58;13.80;;;;;;;-0.38;64.59;102228.59;5114010;28;20031;-83
2022/03/06 02:20:38;;;;;;;23.95;14.65;;;;;;;-0.41;65.71;102231.50;5114092;28;20077;-81
2022/03/06 02:23:04;;;;;;;22.42;13.82;;;;;;;-0.44;65.92;102226.38;5113424;28;20130;-82
2022/03/06 02:25:34;;;;;;;22.77;13.20;;;;;;;-0.48;65.93;102230.22;5114085;28;20123;-83
2022/03/06 02:28:04;;;;;;;22.85;13.32;;;;;;;-0.48;63.92;102231.06;5113986;28;20372;-83
2022/03/06 02:30:32;;;;;;;22.95;14.23;;;;;;;-0.47;63.29;102224.78;5113728;28;20035;-82
2022/03/06 02:32:59;;;;;;;24.77;14.23;;;;;;;-0.50;65.71;102235.66;5096643;28;20027;-82
2022/03/06 02:35:28;;;;;;;23.55;14.48;;;;;;;-0.51;65.14;102241.13;5113830;28;20097;-83
2022/03/06 02:37:54;;;;;;;25.40;15.70;;;;;;;-0.52;65.64;102245.56;5113595;28;20073;-83
2022/03/06 02:40:21;;;;;;;22.92;13.93;;;;;;;-0.56;66.49;102234.28;5113264;28;20054;-83
2022/03/06 02:42:48;;;;;;;25.48;14.90;;;;;;;-0.58;65.13;102241.53;5114433;28;20023;-82
2022/03/06 02:45:24;;;;;;;21.67;13.40;;;;;;;-0.57;64.49;102245.06;5113509;28;20066;-83
2022/03/06 02:47:50;;;;;;;24.15;15.05;;;;;;;-0.60;67.51;102240.78;5096862;28;20079;-83
2022/03/06 02:50:19;;;;;;;23.13;14.52;;;;;;;-0.56;64.16;102244.94;5113654;28;20032;-83
2022/03/06 02:52:45;;;;;;;25.73;15.10;;;;;;;-0.55;66.58;102248.47;5113322;28;20036;-83
2022/03/06 02:55:12;;;;;;;23.35;14.38;;;;;;;-0.55;65.98;102243.13;5113014;28;20038;-83
2022/03/06 02:57:38;;;;;;;22.20;13.73;;;;;;;-0.58;65.38;102244.19;5096050;28;20043;-83
2022/03/06 03:00:06;;;;;;;23.08;14.55;;;;;;;-0.58;64.87;102246.84;5113285;28;20030;-83
2022/03/06 03:02:32;;;;;;;22.90;13.80;;;;;;;-0.59;66.54;102249.63;5115038;28;20035;-82
2022/03/06 03:04:57;;;;;;;22.73;13.90;;;;;;;-0.60;66.28;102250.59;5096483;28;20031;-83
2022/03/06 03:07:23;;;;;;;23.80;14.65;;;;;;;-0.64;66.31;102249.94;5079288;28;20365;-82
2022/03/06 03:09:48;;;;;;;24.98;15.30;;;;;;;-0.65;68.00;102252.72;5113312;28;20035;-82
2022/03/06 03:12:14;;;;;;;23.58;14.10;;;;;;;-0.65;65.25;102250.94;5096013;28;20039;-83
2022/03/06 03:14:39;;;;;;;24.02;14.52;;;;;;;-0.68;68.11;102256.44;5112467;28;20028;-83
2022/03/06 03:17:11;;;;;;;24.00;14.80;;;;;;;-0.69;66.01;102253.91;5095743;28;20110;-84
2022/03/06 03:19:38;;;;;;;24.25;14.77;;;;;;;-0.71;68.97;102260.22;5113683;28;20027;-83
2022/03/06 03:22:04;;;;;;;22.85;14.30;;;;;;;-0.72;66.83;102261.16;5096064;28;20023;-83
2022/03/06 03:24:29;;;;;;;22.67;14.32;;;;;;;-0.73;67.53;102258.59;5096181;28;20065;-83
2022/03/06 03:26:55;;;;;;;22.25;13.40;;;;;;;-0.75;68.29;102252.53;5112663;28;20072;-83
2022/03/06 03:29:20;;;;;;;23.05;14.48;;;;;;;-0.77;67.68;102252.66;5114758;28;20071;-83
2022/03/06 03:31:46;;;;;;;23.45;14.23;;;;;;;-0.78;67.94;102250.94;5095951;28;20036;-82
2022/03/06 03:34:12;;;;;;;23.70;15.38;;;;;;;-0.79;67.55;102253.69;5112798;28;20030;-83
2022/03/06 03:36:38;;;;;;;23.40;14.60;;;;;;;-0.84;68.83;102253.16;5113343;28;20451;-84
2022/03/06 03:39:07;;;;;;;21.95;14.05;;;;;;;-0.89;67.32;102254.34;5113692;28;20061;-82
2022/03/06 03:41:33;;;;;;;23.10;14.30;;;;;;;-0.92;68.88;102248.34;5117418;28;20031;-82
2022/03/06 03:43:59;;;;;;;25.05;15.32;;;;;;;-0.93;68.90;102251.97;5116929;28;20027;-83
2022/03/06 03:46:24;;;;;;;21.70;13.52;;;;;;;-0.98;68.38;102249.63;5118236;28;20092;-82
2022/03/06 03:48:50;;;;;;;24.63;15.40;;;;;;;-1.02;69.39;102250.78;5117157;28;20055;-83
2022/03/06 03:51:15;;;;;;;23.08;14.45;;;;;;;-1.04;69.52;102252.72;5083130;28;20062;-83
2022/03/06 03:53:41;;;;;;;24.30;15.48;;;;;;;-1.07;69.97;102253.78;5082525;28;20100;-82
2022/03/06 03:56:06;;;;;;;26.20;15.50;;;;;;;-1.10;69.46;102251.31;5099801;28;20039;-82
2022/03/06 03:58:33;;;;;;;25.20;15.13;;;;;;;-1.13;70.82;102258.69;5099733;28;20031;-82
2022/03/06 04:00:58;;;;;;;24.23;15.82;;;;;;;-1.12;70.39;102266.56;5116643;28;20036;-81
2022/03/06 04:03:24;;;;;;;24.25;15.55;;;;;;;-1.12;71.26;102265.69;5099368;28;20030;-82
2022/03/06 04:05:50;;;;;;;22.83;14.50;;;;;;;-1.13;68.09;102272.00;5116209;28;20023;-82
2022/03/06 04:08:16;;;;;;;22.13;13.75;;;;;;;-1.17;70.53;102267.84;5116053;28;20123;-82
2022/03/06 04:10:41;;;;;;;22.88;14.35;;;;;;;-1.20;70.10;102262.72;5116486;28;20456;-82
2022/03/06 04:13:07;;;;;;;22.42;14.02;;;;;;;-1.22;69.59;102275.28;5116429;28;20028;-82
2022/03/06 04:15:32;;;;;;;25.20;15.48;;;;;;;-1.21;69.84;102282.31;5117455;28;20028;-82
2022/03/06 04:17:58;;;;;;;24.63;14.95;;;;;;;-1.24;70.47;102283.34;5116095;28;20034;-82
2022/03/06 04:20:24;;;;;;;24.52;15.30;;;;;;;-1.26;70.08;102285.28;5116575;28;20023;-82
2022/03/06 04:22:50;;;;;;;23.83;14.88;;;;;;;-1.29;70.34;102283.66;5116019;28;20061;-82
2022/03/06 04:25:16;;;;;;;24.00;14.60;;;;;;;-1.32;71.24;102289.19;5099273;28;20031;-82
2022/03/06 04:27:41;;;;;;;25.83;15.70;;;;;;;-1.35;71.62;102294.72;5117138;28;20035;-82
2022/03/06 04:30:07;;;;;;;22.30;14.73;;;;;;;-1.37;69.90;102290.47;5116433;28;20080;-82
2022/03/06 04:32:33;;;;;;;20.95;13.15;;;;;;;-1.42;71.44;102299.63;5115692;28;20031;-82
2022/03/06 04:34:59;;;;;;;23.83;14.55;;;;;;;-1.43;71.48;102297.91;5099099;28;20101;-82
2022/03/06 04:37:24;;;;;;;23.70;15.02;;;;;;;-1.46;71.48;102299.91;5115877;28;20084;-82
2022/03/06 04:39:50;;;;;;;23.05;14.77;;;;;;;-1.45;69.98;102298.97;5115860;28;20027;-82
2022/03/06 04:42:15;;;;;;;23.48;15.48;;;;;;;-1.45;69.10;102301.63;5098640;28;20127;-83
2022/03/06 04:44:41;;;;;;;22.90;14.40;;;;;;;-1.50;71.75;102306.41;5116191;28;20035;-83
2022/03/06 04:47:10;;;;;;;25.10;16.23;;;;;;;-1.50;70.91;102309.91;5115521;28;20031;-83
2022/03/06 04:49:36;;;;;;;21.42;14.20;;;;;;;-1.54;71.32;102308.41;5117268;28;20073;-83
2022/03/06 04:52:04;;;;;;;23.05;14.70;;;;;;;-1.53;71.91;102312.78;5114616;28;20031;-82
2022/03/06 04:54:33;;;;;;;22.52;14.15;;;;;;;-1.56;72.09;102310.31;5116149;28;20482;-82
2022/03/06 04:57:00;;;;;;;23.52;14.25;;;;;;;-1.57;71.42;102318.41;5099163;28;20109;-83
2022/03/06 04:59:32;;;;;;;20.73;13.82;;;;;;;-1.61;72.22;102321.28;5082293;28;20063;-82
2022/03/06 05:01:58;;;;;;;21.75;13.60;;;;;;;-1.59;71.24;102326.50;5115589;28;20084;-82
2022/03/06 05:04:23;;;;;;;21.25;13.27;;;;;;;-1.61;71.29;102331.94;5098569;28;20478;-82
2022/03/06 05:06:49;;;;;;;21.65;14.13;;;;;;;-1.63;71.41;102335.63;5115441;28;20038;-82
2022/03/06 05:09:15;;;;;;;21.42;13.60;;;;;;;-1.63;71.29;102332.97;5115180;28;20036;-82
2022/03/06 05:11:42;;;;;;;20.45;13.57;;;;;;;-1.64;72.01;102336.56;5116236;28;20038;-81
2022/03/06 05:14:10;;;;;;;19.55;12.93;;;;;;;-1.65;70.57;102338.38;5114956;28;20539;-83
2022/03/06 05:16:36;;;;;;;20.50;13.50;;;;;;;-1.66;71.49;102341.16;5097950;28;20092;-82
2022/03/06 05:19:01;;;;;;;21.55;13.43;;;;;;;-1.70;72.30;102343.13;5098211;28;20035;-81
2022/03/06 05:21:27;;;;;;;19.98;13.40;;;;;;;-1.71;71.53;102338.78;5115192;28;20464;-82
2022/03/06 05:23:52;;;;;;;20.85;13.93;;;;;;;-1.74;72.83;102346.97;5114785;28;20138;-82
2022/03/06 05:26:18;;;;;;;21.67;13.98;;;;;;;-1.74;72.46;102340.78;5114819;28;20034;-82
2022/03/06 05:28:44;;;;;;;22.95;14.85;;;;;;;-1.77;72.27;102341.84;5081008;28;20032;-82
2022/03/06 05:31:10;;;;;;;20.05;14.23;;;;;;;-1.78;70.77;102353.44;5117143;28;20416;-82
2022/03/06 05:33:36;;;;;;;20.08;14.00;;;;;;;-1.81;72.61;102356.28;5115881;28;20031;-82
2022/03/06 05:36:02;;;;;;;20.25;13.43;;;;;;;-1.84;71.83;102357.34;5097717;28;20467;-82
2022/03/06 05:38:28;;;;;;;21.33;14.30;;;;;;;-1.86;73.35;102356.59;5114535;28;20379;-82
2022/03/06 05:40:53;;;;;;;21.55;14.88;;;;;;;-1.86;73.82;102361.03;5114906;28;20068;-83
2022/03/06 05:43:19;;;;;;;21.42;14.38;;;;;;;-1.86;73.31;102366.34;5114578;28;20085;-83
2022/03/06 05:45:52;;;;;;;19.67;13.82;;;;;;;-1.85;72.24;102357.44;5097981;28;20100;-83
2022/03/06 05:48:21;;;;;;;18.80;12.75;;;;;;;-1.89;72.40;102358.56;5115086;28;20151;-82
2022/03/06 05:50:47;;;;;;;20.00;13.50;;;;;;;-1.91;72.33;102365.81;5114324;28;20031;-82
2022/03/06 05:53:13;;;;;;;21.60;13.55;;;;;;;-1.94;73.71;102364.19;5114755;28;20070;-82
2022/03/06 05:55:38;;;;;;;21.83;14.20;;;;;;;-1.94;73.18;102370.34;5114823;28;20028;-82
2022/03/06 05:58:04;;;;;;;18.65;13.07;;;;;;;-1.96;72.34;102374.94;5097480;28;20073;-82
2022/03/06 06:00:30;;;;;;;21.17;14.07;;;;;;;-1.96;74.00;102371.44;5114410;28;20459;-82
2022/03/06 06:02:55;;;;;;;19.13;13.25;;;;;;;-1.97;72.79;102365.22;5113305;28;20039;-82
2022/03/06 06:05:22;;;;;;;21.70;13.98;;;;;;;-1.97;72.83;102381.19;5114325;28;20074;-83
2022/03/06 06:07:48;;;;;;;21.00;14.35;;;;;;;-1.99;73.83;102384.91;5114245;28;20088;-82
2022/03/06 06:10:14;;;;;;;19.73;13.80;;;;;;;-2.01;73.19;102386.81;5113869;28;20031;-80
2022/03/06 06:12:40;;;;;;;20.55;13.73;;;;;;;-2.01;72.69;102394.78;5113699;28;20042;-80
2022/03/06 06:15:06;;;;;;;19.45;13.95;;;;;;;-2.01;73.30;102394.78;5097151;28;20035;-81
2022/03/06 06:17:32;;;;;;;19.95;13.48;;;;;;;-2.03;73.55;102394.03;5097307;28;20482;-80
2022/03/06 06:20:00;;;;;;;20.45;13.52;;;;;;;-2.04;73.02;102398.47;5114298;28;20027;-80
2022/03/06 06:22:26;;;;;;;17.50;12.32;;;;;;;-2.04;72.67;102400.28;5097304;28;20533;-80
2022/03/06 06:24:51;;;;;;;19.85;13.90;;;;;;;-2.04;72.54;102403.78;5097397;28;20126;-80
2022/03/06 06:27:17;;;;;;;22.10;15.45;;;;;;;-2.03;73.51;102412.66;5096950;28;20118;-80
2022/03/06 06:29:45;;;;;;;20.50;14.48;;;;;;;-2.03;73.40;102407.34;5096702;28;20040;-80
2022/03/06 06:32:10;;;;;;;20.92;13.93;;;;;;;-2.06;74.00;102405.72;5096853;28;20031;-80
2022/03/06 06:34:36;;;;;;;21.38;13.75;;;;;;;-2.05;73.48;102410.09;5113752;28;20073;-80
2022/03/06 06:37:02;;;;;;;19.45;13.80;;;;;;;-2.03;72.81;102408.19;5113822;28;20032;-81
2022/03/06 06:39:28;;;;;;;19.40;13.60;;;;;;;-2.02;73.76;102414.34;5113638;28;20031;-81
2022/03/06 06:41:53;;;;;;;19.27;13.13;;;;;;;-2.01;73.67;102416.06;5096929;28;20032;-81
2022/03/06 06:44:19;;;;;;;19.83;13.20;;;;;;;-2.01;74.10;102411.63;5113555;28;20036;-80
2022/03/06 06:46:45;;;;;;;17.67;12.30;;;;;;;-2.01;74.26;102411.63;5114435;28;20032;-81
2022/03/06 06:49:11;;;;;;;17.95;12.68;;;;;;;-1.98;73.89;102415.88;5096147;28;20035;-81
2022/03/06 06:51:38;;;;;;;17.63;12.50;;;;;;;-1.92;72.54;102420.81;5096754;28;20028;-80
2022/03/06 06:54:06;;;;;;;17.45;12.23;;;;;;;-1.89;71.65;102423.31;5113598;28;20597;-81
2022/03/06 06:56:31;;;;;;;19.73;13.90;;;;;;;-1.86;72.28;102433.75;5079588;28;20487;-81
2022/03/06 06:58:59;;;;;;;18.85;13.00;;;;;;;-1.83;73.07;102433.56;5114415;28;20053;-80
2022/03/06 07:01:25;;;;;;;17.95;12.93;;;;;;;-1.80;72.96;102435.16;5113251;28;20028;-80
2022/03/06 07:03:50;;;;;;;19.63;13.52;;;;;;;-1.78;73.35;102438.59;5114552;28;20042;-81
2022/03/06 07:06:16;;;;;;;20.10;13.60;;;;;;;-1.74;73.39;102442.78;5079364;28;20038;-81
2022/03/06 07:08:42;;;;;;;17.45;11.80;;;;;;;-1.70;71.37;102443.44;5113129;28;20031;-80
2022/03/06 07:11:08;;;;;;;19.58;13.40;;;;;;;-1.64;71.77;102449.25;5113161;28;20027;-80
2022/03/06 07:13:34;;;;;;;19.52;13.32;;;;;;;-1.59;72.60;102449.78;5078841;28;20108;-80
2022/03/06 07:16:00;;;;;;;18.95;13.60;;;;;;;-1.52;72.36;102447.59;5113079;28;20028;-80
2022/03/06 07:18:25;;;;;;;18.70;13.63;;;;;;;-1.48;72.25;102448.25;5113075;28;20024;-80
2022/03/06 07:20:50;;;;;;;18.95;13.25;;;;;;;-1.42;72.39;102451.41;5114134;28;20039;-80
2022/03/06 07:23:16;;;;;;;22.90;12.60;;;;;;;-1.37;71.95;102451.09;5078641;28;20044;-80
2022/03/06 07:25:43;;;;;;;18.48;13.20;;;;;;;-1.31;71.68;102447.19;5096365;28;20117;-80
2022/03/06 07:28:08;;;;;;;18.25;12.75;;;;;;;-1.27;71.42;102454.88;5096052;28;20039;-81
2022/03/06 07:30:34;;;;;;;21.08;13.52;;;;;;;-1.21;71.48;102453.66;5114674;28;20038;-81
2022/03/06 07:33:00;;;;;;;20.42;14.07;;;;;;;-1.15;71.47;102460.34;5112486;28;20024;-80
2022/03/06 07:35:27;;;;;;;18.80;13.65;;;;;;;-1.10;71.23;102463.59;5113149;28;20023;-81
2022/03/06 07:37:53;;;;;;;20.15;13.45;;;;;;;-1.04;71.62;102465.00;5112543;28;20030;-80
2022/03/06 07:40:20;;;;;;;18.33;13.18;;;;;;;-0.97;71.60;102471.66;5113101;28;20059;-81
2022/03/06 07:42:46;;;;;;;20.15;14.07;;;;;;;-0.90;71.23;102480.94;5112840;28;20074;-80
2022/03/06 07:45:16;;;;;;;19.55;13.48;;;;;;;-0.86;71.26;102479.78;5095509;28;20036;-80
2022/03/06 07:47:42;;;;;;;17.50;12.30;;;;;;;-0.80;70.22;102484.72;5095809;28;20063;-80
2022/03/06 07:50:11;;;;;;;19.77;13.93;;;;;;;-0.73;70.62;102494.00;5112916;28;20082;-80
2022/03/06 07:52:37;;;;;;;18.65;13.60;;;;;;;-0.67;69.85;102484.75;5112615;28;20118;-81
2022/03/06 07:55:11;;;;;;;20.58;14.73;;;;;;;-0.59;69.38;102495.78;5112233;28;20038;-80
2022/03/06 07:57:36;;;;;;;20.73;14.43;;;;;;;-0.54;68.98;102491.00;5113594;28;20076;-80
2022/03/06 08:00:09;;;;;;;20.08;14.60;;;;;;;-0.47;70.29;102502.13;5095916;28;20035;-80
2022/03/06 08:02:34;;;;;;;20.67;14.15;;;;;;;-0.40;69.42;102495.41;5095825;28;20471;-80
2022/03/06 08:05:00;;;;;;;20.85;14.55;;;;;;;-0.33;70.45;102505.66;5112372;28;20034;-80
2022/03/06 08:07:25;;;;;;;20.13;13.95;;;;;;;-0.29;68.74;102502.69;5095932;28;20472;-81
2022/03/06 08:09:50;;;;;;;20.02;13.93;;;;;;;-0.21;69.76;102512.81;5078299;28;20044;-81
2022/03/06 08:12:16;;;;;;;20.10;14.20;;;;;;;-0.14;70.02;102516.78;5095485;28;20034;-81
2022/03/06 08:14:42;;;;;;;20.55;14.20;;;;;;;-0.09;69.64;102508.47;5095892;28;20027;-81
2022/03/06 08:17:10;;;;;;;18.70;12.60;;;;;;;-0.03;70.20;102511.59;5112407;28;20035;-80
2022/03/06 08:19:35;;;;;;;18.52;13.00;;;;;;;0.04;69.50;102519.16;5095972;28;20039;-80
2022/03/06 08:22:01;;;;;;;18.75;13.57;;;;;;;0.10;69.08;102518.75;5112018;28;20032;-81
2022/03/06 08:24:27;;;;;;;20.83;14.48;;;;;;;0.20;68.46;102518.97;5078627;28;20125;-81
2022/03/06 08:26:53;;;;;;;20.85;14.35;;;;;;;0.26;68.20;102510.53;5097955;28;20096;-80
2022/03/06 08:29:18;;;;;;;19.88;14.13;;;;;;;0.28;68.69;102516.59;5099170;28;20035;-80
2022/03/06 08:31:44;;;;;;;18.63;12.95;;;;;;;0.35;69.08;102517.91;5117089;28;20389;-80
2022/03/06 08:34:10;;;;;;;18.10;12.38;;;;;;;0.43;68.54;102520.91;5082411;28;20047;-80
2022/03/06 08:36:35;;;;;;;18.38;12.93;;;;;;;0.50;68.43;102514.16;5116023;28;20028;-80
2022/03/06 08:39:04;;;;;;;16.08;11.52;;;;;;;0.59;67.57;102526.00;5117003;28;20027;-83
2022/03/06 08:41:29;;;;;;;15.95;11.90;;;;;;;0.66;67.93;102532.59;5099872;28;20039;-82
2022/03/06 08:43:55;;;;;;;16.88;12.07;;;;;;;0.74;67.45;102526.75;5098773;28;20419;-83
2022/03/06 08:46:20;;;;;;;20.35;13.60;;;;;;;0.84;67.40;102537.59;5098384;28;20027;-82
2022/03/06 08:48:46;;;;;;;19.77;13.80;;;;;;;0.90;66.77;102539.84;5117138;28;20036;-82
2022/03/06 08:51:13;;;;;;;19.27;13.95;;;;;;;0.97;67.17;102537.59;5115375;28;20391;-81
2022/03/06 08:53:41;;;;;;;20.42;13.98;;;;;;;1.07;66.74;102538.63;5098787;28;20059;-82
2022/03/06 08:56:07;;;;;;;19.10;13.48;;;;;;;1.15;66.10;102530.91;5115367;28;20119;-82
2022/03/06 08:58:32;;;;;;;21.10;14.52;;;;;;;1.25;66.66;102535.56;5098800;28;20122;-82
2022/03/06 09:00:59;;;;;;;18.63;13.80;;;;;;;1.32;66.19;102539.50;5098288;28;20467;-82
2022/03/06 09:03:27;;;;;;;18.38;12.50;;;;;;;1.40;66.03;102537.09;5115656;28;20028;-82
2022/03/06 09:05:52;;;;;;;18.92;12.80;;;;;;;1.48;66.44;102541.91;5098222;28;20036;-83
2022/03/06 09:08:17;;;;;;;15.70;11.10;;;;;;;1.56;66.02;102536.81;5097953;28;20035;-84
2022/03/06 09:10:43;;;;;;;16.67;11.70;;;;;;;1.64;65.55;102542.47;5115274;28;20030;-83
2022/03/06 09:13:09;;;;;;;18.67;14.20;;;;;;;1.72;64.83;102539.22;5098819;28;20055;-82
2022/03/06 09:15:36;;;;;;;20.85;14.35;;;;;;;1.77;64.82;102547.72;5115111;28;20490;-82
2022/03/06 09:18:04;;;;;;;18.45;13.27;;;;;;;1.83;65.43;102544.63;5115209;28;20450;-82
2022/03/06 09:20:30;;;;;;;18.50;13.25;;;;;;;1.92;64.65;102546.59;5114809;28;20487;-82
2022/03/06 09:22:56;;;;;;;18.65;12.88;;;;;;;2.02;65.03;102549.44;5114844;28;20050;-82
2022/03/06 09:25:22;;;;;;;17.50;12.05;;;;;;;2.09;64.21;102545.28;5114795;28;20552;-82
2022/03/06 09:27:48;;;;;;;18.35;12.80;;;;;;;2.14;63.98;102536.91;5081514;28;20036;-82
2022/03/06 09:30:14;;;;;;;17.52;12.05;;;;;;;2.19;63.63;102540.06;5116338;28;20361;-82
2022/03/06 09:32:40;;;;;;;16.63;11.90;;;;;;;2.28;63.09;102525.97;5114936;28;20036;-84
2022/03/06 09:35:07;;;;;;;18.02;12.88;;;;;;;2.34;63.41;102538.03;5116138;28;20091;-82
2022/03/06 09:37:35;;;;;;;18.80;12.73;;;;;;;2.43;62.61;102531.09;5114458;28;20493;-83
2022/03/06 09:40:03;;;;;;;19.55;12.98;;;;;;;2.52;63.06;102538.41;5098512;28;20046;-83
2022/03/06 09:42:28;;;;;;;16.35;11.68;;;;;;;2.65;62.85;102532.09;5115610;28;20118;-83
2022/03/06 09:44:57;;;;;;;16.17;11.68;;;;;;;2.78;62.70;102527.47;5081436;28;20467;-82
2022/03/06 09:47:24;;;;;;;13.50;9.98;;;;;;;2.92;61.95;102532.56;5114316;28;20494;-83
2022/03/06 09:49:53;;;;;;;14.18;10.55;;;;;;;3.03;61.63;102531.69;5114627;28;20039;-82
2022/03/06 09:52:18;;;;;;;17.48;12.48;;;;;;;3.10;60.85;102526.66;5098215;28;20027;-82
2022/03/06 09:54:43;;;;;;;17.83;12.90;;;;;;;3.15;60.74;102528.00;5080472;28;20027;-82
2022/03/06 09:57:09;;;;;;;17.88;12.55;;;;;;;3.23;60.48;102527.38;5114016;28;20031;-82
2022/03/06 09:59:34;;;;;;;16.85;12.45;;;;;;;3.33;60.15;102527.47;5113993;28;20024;-82
2022/03/06 10:02:01;;;;;;;15.68;11.80;;;;;;;3.38;60.60;102527.09;5097924;28;20030;-82
2022/03/06 10:04:30;;;;;;;17.35;12.63;;;;;;;3.49;60.06;102521.69;5114235;28;20019;-82
2022/03/06 10:07:05;;;;;;;17.35;11.60;;;;;;;3.62;60.43;102519.69;5115614;28;20031;-83
2022/03/06 10:09:33;;;;;;;14.70;11.02;;;;;;;3.76;59.90;102526.56;5114759;28;20029;-82
2022/03/06 10:12:02;;;;;;;16.52;12.00;;;;;;;3.88;58.96;102526.53;5113937;28;20037;-83
2022/03/06 10:14:42;;;;;;;13.85;10.73;;;;;;;4.00;59.15;102525.47;5096828;28;20035;-83
2022/03/06 10:17:17;;;;;;;17.20;13.02;;;;;;;4.13;58.25;102523.44;5113951;28;20045;-81
2022/03/06 10:19:54;;;;;;;16.27;12.18;;;;;;;4.19;57.69;102532.81;5114957;28;20058;-80
2022/03/06 10:22:21;;;;;;;16.48;12.45;;;;;;;4.29;57.83;102531.03;5114490;28;20035;-81
2022/03/06 10:24:56;;;;;;;16.80;12.35;;;;;;;4.46;57.28;102540.34;5113852;28;20063;-80
2022/03/06 10:27:48;;;;;;;16.88;12.85;;;;;;;4.64;56.54;102531.66;5113805;28;20119;-81
2022/03/06 10:30:46;;;;;;;17.33;12.98;;;;;;;4.73;56.12;102531.66;5115262;28;20456;-81
2022/03/06 10:33:23;;;;;;;14.93;11.73;;;;;;;4.89;56.24;102533.03;5041308;28;20070;-81
2022/03/06 10:35:50;;;;;;;15.27;10.52;;;;;;;5.07;55.77;102538.59;5113317;28;20444;-81
2022/03/06 10:38:22;;;;;;;13.27;10.55;;;;;;;5.18;55.34;102537.59;5113356;28;20032;-81
2022/03/06 10:40:49;;;;;;;14.18;10.65;;;;;;;5.28;54.86;102530.41;5111518;28;20034;-81
2022/03/06 10:43:23;;;;;;;13.15;9.73;;;;;;;5.43;55.00;102534.41;5115004;28;20046;-80
2022/03/06 10:45:50;;;;;;;14.52;10.27;;;;;;;5.63;54.23;102537.94;5115030;28;20038;-81
2022/03/06 10:48:17;;;;;;;12.55;9.50;;;;;;;5.86;53.70;102537.69;5112618;28;20067;-81
2022/03/06 10:50:43;;;;;;;13.43;10.02;;;;;;;6.10;53.05;102525.63;5112894;28;20108;-81
2022/03/06 10:53:24;;;;;;;12.38;9.50;;;;;;;6.35;53.13;102534.06;5113995;28;20033;-81
2022/03/06 10:55:50;;;;;;;14.32;10.00;;;;;;;6.62;51.00;102525.19;5113677;28;20027;-80
2022/03/06 10:58:18;;;;;;;13.10;8.90;;;;;;;6.79;51.90;102526.25;5113945;28;20115;-81
2022/03/06 11:00:44;;;;;;;11.27;8.40;;;;;;;7.03;50.83;102525.72;5096102;28;20032;-81
2022/03/06 11:03:12;;;;;;;12.88;8.05;;;;;;;7.30;50.39;102522.13;5113189;28;20076;-81
2022/03/06 11:05:42;;;;;;;9.52;7.35;;;;;;;7.53;48.84;102521.69;5096267;28;20391;-83
2022/03/06 11:08:11;;;;;;;10.60;8.02;;;;;;;7.71;48.50;102521.69;5113430;28;20023;-81
2022/03/06 11:10:39;;;;;;;9.82;8.20;;;;;;;7.88;48.69;102517.25;5114074;28;20038;-81